CheckWX is a tool to help pilots better visualize weather data.  It is not intended as a substitute for an official pre-flight weather briefing.

18:51:28 UTC

CYYT METAR
St. John's International Airport
St. John's, Canada
Current

51 mins ago

CYYT 191800Z 27022G33KT 15SM FEW030 SCT140 23/11 A2960 RMK SC2AC1 SLP026 DENSITY ALT 1900FT
Observed
Jul-19 @ 18:00 UTC
Wind
  • 270° at 22 KTS
  • Gusting to 33 KTS
Visibility
15 SM
Flight Rules
VFR
Cloud Levels
  • Few at 3,000' AGL
  • Scattered at 14,000' AGL
Temperature
23°C / 73°F
Dewpoint
11°C / 52°F
Humidity
47%
Altimeter
29.6" Hg
Pressure
1002.42 hPa
Previous

2 hours ago

CYYT 191700Z 28022G32KT 15SM FEW030 SCT130 22/11 A2961 RMK SC1AC2 SLP029 DENSITY ALT 1800FT
Observed
Jul-19 @ 17:00 UTC
Wind
  • 280° at 22 KTS
  • Gusting to 32 KTS
Visibility
15 SM
Flight Rules
VFR
Cloud Levels
  • Few at 3,000' AGL
  • Scattered at 13,000' AGL
Temperature
22°C / 72°F
Dewpoint
11°C / 52°F
Humidity
50%
Altimeter
29.61" Hg
Pressure
1002.72 hPa
Previous

3 hours ago

CYYT 191600Z 27027G33KT 15SM FEW030 SCT130 21/10 A2963 RMK SC2AC1 SLP035 DENSITY ALT 1700FT
Observed
Jul-19 @ 16:00 UTC
Wind
  • 270° at 27 KTS
  • Gusting to 33 KTS
Visibility
15 SM
Flight Rules
VFR
Cloud Levels
  • Few at 3,000' AGL
  • Scattered at 13,000' AGL
Temperature
21°C / 70°F
Dewpoint
10°C / 50°F
Humidity
50%
Altimeter
29.63" Hg
Pressure
1003.42 hPa